createdAt,value
2023-04-22T00:01:14.819Z,9.70
2023-04-22T00:04:01.079Z,10.95
2023-04-22T00:06:47.221Z,9.65
2023-04-22T00:09:32.627Z,10.48
2023-04-22T00:12:17.996Z,9.15
2023-04-22T00:15:03.581Z,8.38
2023-04-22T00:17:49.395Z,9.10
2023-04-22T00:20:36.526Z,7.05
2023-04-22T00:23:21.915Z,6.53
2023-04-22T00:26:07.420Z,6.32
2023-04-22T00:28:52.731Z,6.32
2023-04-22T00:31:38.028Z,8.15
2023-04-22T00:34:23.245Z,6.82
2023-04-22T00:37:08.724Z,7.47
2023-04-22T00:39:54.421Z,6.80
2023-04-22T00:42:41.666Z,7.90
2023-04-22T00:45:27.350Z,7.85
2023-04-22T00:48:14.136Z,8.70
2023-04-22T00:50:59.307Z,7.72
2023-04-22T00:53:44.717Z,8.18
2023-04-22T00:56:31.863Z,9.38
2023-04-22T00:59:17.081Z,9.65
2023-04-22T01:02:04.024Z,8.80
2023-04-22T01:04:49.898Z,8.55
2023-04-22T01:07:36.425Z,8.88
2023-04-22T01:10:22.148Z,9.30
2023-04-22T01:13:07.782Z,9.30
2023-04-22T01:15:54.064Z,9.63
2023-04-22T01:18:39.659Z,10.30
2023-04-22T01:21:27.255Z,10.32
2023-04-22T01:24:13.211Z,9.50
2023-04-22T01:26:58.571Z,10.85
2023-04-22T01:29:44.353Z,12.32
2023-04-22T01:32:31.237Z,11.23
2023-04-22T01:35:16.732Z,11.73
2023-04-22T01:38:03.708Z,11.25
2023-04-22T01:40:49.061Z,11.93
2023-04-22T01:43:34.441Z,11.50
2023-04-22T01:46:21.236Z,11.95
2023-04-22T01:49:06.957Z,11.13
2023-04-22T01:51:52.365Z,11.15
2023-04-22T01:54:39.099Z,12.63
2023-04-22T01:57:24.517Z,10.60
2023-04-22T02:00:10.559Z,11.93
2023-04-22T02:02:59.155Z,11.90
2023-04-22T02:05:44.806Z,11.20
2023-04-22T02:08:31.755Z,11.45
2023-04-22T02:11:17.074Z,12.38
2023-04-22T02:14:02.470Z,10.77
2023-04-22T02:16:48.369Z,11.15
2023-04-22T02:19:35.396Z,10.55
2023-04-22T02:22:22.353Z,11.50
2023-04-22T02:25:11.093Z,10.50
2023-04-22T02:27:56.471Z,11.90
2023-04-22T02:30:42.427Z,11.63
2023-04-22T02:33:28.224Z,11.18
2023-04-22T02:36:13.739Z,11.40
2023-04-22T02:38:59.188Z,10.75
2023-04-22T02:41:44.476Z,10.18
2023-04-22T02:44:30.744Z,13.25
2023-04-22T02:47:16.944Z,11.25
2023-04-22T02:50:02.638Z,11.30
2023-04-22T02:52:48.184Z,11.30
2023-04-22T02:55:33.618Z,11.48
2023-04-22T02:58:19.513Z,11.40
2023-04-22T03:01:05.426Z,11.32
2023-04-22T03:03:51.079Z,11.23
2023-04-22T03:06:41.573Z,11.23
2023-04-22T03:09:27.502Z,12.68
2023-04-22T03:12:12.928Z,10.27
2023-04-22T03:14:58.297Z,11.23
2023-04-22T03:17:47.970Z,11.55
2023-04-22T03:20:35.215Z,10.43
2023-04-22T03:23:21.418Z,11.40
2023-04-22T03:26:06.844Z,10.40
2023-04-22T03:28:52.195Z,11.25
2023-04-22T03:31:37.823Z,10.10
2023-04-22T03:34:23.551Z,10.45
2023-04-22T03:37:09.685Z,10.27
2023-04-22T03:39:55.191Z,9.68
2023-04-22T03:42:41.087Z,9.18
2023-04-22T03:45:27.136Z,9.38
2023-04-22T03:48:29.183Z,10.52
2023-04-22T03:51:15.733Z,10.95
2023-04-22T03:54:01.567Z,9.13
2023-04-22T03:56:50.655Z,9.60
2023-04-22T03:59:37.901Z,9.00
2023-04-22T04:02:24.797Z,9.63
2023-04-22T04:05:11.570Z,9.80
2023-04-22T04:07:58.730Z,10.93
2023-04-22T04:10:44.112Z,9.73
2023-04-22T04:13:32.463Z,9.07
2023-04-22T04:16:34.891Z,9.52
2023-04-22T04:19:28.792Z,10.93
2023-04-22T04:22:15.122Z,10.18
2023-04-22T04:25:10.489Z,10.75
2023-04-22T04:28:00.016Z,11.25
2023-04-22T04:30:45.976Z,11.30
2023-04-22T04:33:32.690Z,11.25
2023-04-22T04:36:19.016Z,11.82
2023-04-22T04:39:04.996Z,11.85
2023-04-22T04:41:55.209Z,11.10
2023-04-22T04:44:41.848Z,10.77
2023-04-22T04:47:28.558Z,12.00
2023-04-22T04:50:24.518Z,11.18
2023-04-22T04:53:11.310Z,11.52
2023-04-22T04:55:59.473Z,12.43
2023-04-22T04:58:46.452Z,11.07
2023-04-22T05:01:43.989Z,10.90
2023-04-22T05:04:31.542Z,11.25
2023-04-22T05:07:17.307Z,10.75
2023-04-22T05:10:04.472Z,10.77
2023-04-22T05:12:51.697Z,10.88
2023-04-22T05:15:41.344Z,10.43
2023-04-22T05:18:26.936Z,9.30
2023-04-22T05:21:13.106Z,11.23
2023-04-22T05:23:59.297Z,10.85
2023-04-22T05:26:44.822Z,9.75
2023-04-22T05:29:35.699Z,8.90
2023-04-22T05:32:22.701Z,10.00
2023-04-22T05:35:09.353Z,7.95
2023-04-22T05:37:55.812Z,9.52
2023-04-22T05:40:41.489Z,10.75
2023-04-22T05:43:29.167Z,9.10
2023-04-22T05:49:07.188Z,8.75
2023-04-22T05:52:11.426Z,10.05
2023-04-22T05:55:14.903Z,9.43
2023-04-22T05:58:00.244Z,9.98
2023-04-22T06:00:58.805Z,10.80
2023-04-22T06:03:59.846Z,10.38
2023-04-22T06:06:45.357Z,9.95
2023-04-22T06:09:32.169Z,11.02
2023-04-22T06:12:18.793Z,10.77
2023-04-22T06:15:05.316Z,10.05
2023-04-22T06:17:51.013Z,9.23
2023-04-22T06:20:36.982Z,8.80
2023-04-22T06:23:22.574Z,7.78
2023-04-22T06:26:08.054Z,7.82
2023-04-22T06:28:55.268Z,6.88
2023-04-22T06:31:40.804Z,7.40
2023-04-22T06:34:26.629Z,7.50
2023-04-22T06:37:12.072Z,7.57
2023-04-22T06:39:57.843Z,8.60
2023-04-22T06:43:03.388Z,8.07
2023-04-22T06:46:08.076Z,7.28
2023-04-22T06:49:13.811Z,8.52
2023-04-22T06:52:11.902Z,8.20
2023-04-22T06:54:57.851Z,7.70
2023-04-22T06:57:43.185Z,7.93
2023-04-22T07:00:29.205Z,7.35
2023-04-22T07:03:16.774Z,6.88
2023-04-22T07:06:02.533Z,7.93
2023-04-22T07:08:49.490Z,7.00
2023-04-22T07:11:34.946Z,7.75
2023-04-22T07:14:26.859Z,7.22
2023-04-22T07:17:12.567Z,6.13
2023-04-22T07:19:58.069Z,6.53
2023-04-22T07:22:43.294Z,5.78
2023-04-22T07:25:28.731Z,5.60
2023-04-22T07:28:14.339Z,5.47
2023-04-22T07:30:59.634Z,5.90
2023-04-22T07:33:45.007Z,4.05
2023-04-22T07:36:32.138Z,3.72
2023-04-22T07:39:18.079Z,2.92
2023-04-22T07:42:03.970Z,2.45
2023-04-22T07:44:49.503Z,2.70
2023-04-22T07:47:35.002Z,3.00
2023-04-22T07:50:20.216Z,2.53
2023-04-22T07:53:06.067Z,2.78
2023-04-22T07:55:51.735Z,2.83
2023-04-22T07:58:37.151Z,2.70
2023-04-22T08:01:22.525Z,2.85
2023-04-22T08:04:08.290Z,2.92
2023-04-22T08:06:54.959Z,2.83
2023-04-22T08:09:40.733Z,3.20
2023-04-22T08:12:26.320Z,3.50
2023-04-22T08:15:12.543Z,3.58
2023-04-22T08:17:58.158Z,2.67
2023-04-22T08:20:43.858Z,4.30
2023-04-22T08:23:29.362Z,3.05
2023-04-22T08:26:16.383Z,3.67
2023-04-22T08:29:01.606Z,3.65
2023-04-22T08:31:47.181Z,4.10
2023-04-22T08:34:32.636Z,3.65
2023-04-22T08:37:18.260Z,3.40
2023-04-22T08:40:04.974Z,3.42
2023-04-22T08:42:52.333Z,3.13
2023-04-22T08:45:39.785Z,3.40
2023-04-22T08:48:26.661Z,3.78
2023-04-22T08:51:12.435Z,3.72
2023-04-22T08:53:58.202Z,3.42
2023-04-22T08:56:45.560Z,4.35
2023-04-22T08:59:31.764Z,3.88
2023-04-22T09:02:20.664Z,3.40
2023-04-22T09:05:09.166Z,3.55
2023-04-22T09:07:55.389Z,4.22
2023-04-22T09:10:41.533Z,3.60
2023-04-22T09:13:27.688Z,3.50
2023-04-22T09:16:13.283Z,3.72
2023-04-22T09:18:59.090Z,3.45
2023-04-22T09:21:45.836Z,4.13
2023-04-22T09:24:32.695Z,3.45
2023-04-22T09:27:23.824Z,3.58
2023-04-22T09:30:10.188Z,3.58
2023-04-22T09:32:57.642Z,3.92
2023-04-22T09:35:43.842Z,3.17
2023-04-22T09:38:32.170Z,3.75
2023-04-22T09:41:17.550Z,3.47
2023-04-22T09:44:04.983Z,2.92
2023-04-22T09:46:51.356Z,3.30
2023-04-22T09:49:39.074Z,3.40
2023-04-22T09:52:27.146Z,3.90
2023-04-22T09:55:12.877Z,3.00
2023-04-22T09:57:58.879Z,2.92
2023-04-22T10:00:48.766Z,3.20
2023-04-22T10:03:34.294Z,2.95
2023-04-22T10:06:20.472Z,3.05
2023-04-22T10:09:09.300Z,3.10
2023-04-22T10:11:58.743Z,2.70
2023-04-22T10:14:44.418Z,2.95
2023-04-22T10:17:33.413Z,2.72
2023-04-22T10:20:20.091Z,3.15
2023-04-22T10:23:07.037Z,3.25
2023-04-22T10:25:56.763Z,3.30
2023-04-22T10:28:44.314Z,3.10
2023-04-22T10:31:29.704Z,3.55
2023-04-22T10:34:15.722Z,3.20
2023-04-22T10:37:06.540Z,3.22
2023-04-22T10:40:08.998Z,3.05
2023-04-22T10:43:03.467Z,2.80
2023-04-22T10:45:48.902Z,2.80
2023-04-22T10:48:50.756Z,3.13
2023-04-22T10:51:39.249Z,2.80
2023-04-22T10:54:37.008Z,2.60
2023-04-22T10:57:22.879Z,2.45
2023-04-22T11:00:20.426Z,2.28
2023-04-22T11:03:05.869Z,3.20
2023-04-22T11:06:16.139Z,2.83
2023-04-22T11:09:16.956Z,2.47
2023-04-22T11:12:39.440Z,3.28
2023-04-22T11:15:25.157Z,3.70
2023-04-22T11:18:14.596Z,3.28
2023-04-22T11:21:07.359Z,3.35
2023-04-22T11:23:53.655Z,4.00
2023-04-22T11:26:41.053Z,4.63
2023-04-22T11:29:26.821Z,4.45
2023-04-22T11:32:12.187Z,5.38
2023-04-22T11:34:58.200Z,4.97
2023-04-22T11:37:45.276Z,4.80
2023-04-22T11:40:35.165Z,5.43
2023-04-22T11:43:22.299Z,5.45
2023-04-22T11:46:08.822Z,5.15
2023-04-22T11:48:54.664Z,5.70
2023-04-22T11:52:00.193Z,5.85
2023-04-22T11:54:46.306Z,6.72
2023-04-22T11:57:36.465Z,6.68
2023-04-22T12:00:23.139Z,6.15
2023-04-22T12:03:18.064Z,5.53
2023-04-22T12:06:05.262Z,4.93
2023-04-22T12:08:50.551Z,5.45
2023-04-22T12:11:36.079Z,5.60
2023-04-22T12:14:21.648Z,5.28
2023-04-22T12:17:10.695Z,5.07
2023-04-22T12:19:56.226Z,6.47
2023-04-22T12:22:41.813Z,5.07
2023-04-22T12:25:27.628Z,6.32
2023-04-22T12:28:13.160Z,5.82
2023-04-22T12:30:58.878Z,5.03
2023-04-22T12:33:45.885Z,5.32
2023-04-22T12:36:32.578Z,5.07
2023-04-22T12:39:19.029Z,6.07
2023-04-22T12:42:05.970Z,5.70
2023-04-22T12:44:51.579Z,5.90
2023-04-22T12:47:37.174Z,6.07
2023-04-22T12:50:22.729Z,4.93
2023-04-22T12:53:08.586Z,4.78
2023-04-22T12:55:55.051Z,4.60
2023-04-22T12:58:40.324Z,5.20
2023-04-22T13:01:26.064Z,5.63
2023-04-22T13:04:11.637Z,4.55
2023-04-22T13:06:57.428Z,4.15
2023-04-22T13:09:43.367Z,4.40
2023-04-22T13:12:28.775Z,3.70
2023-04-22T13:15:14.518Z,4.30
2023-04-22T13:18:00.584Z,3.88
2023-04-22T13:20:46.369Z,4.07
2023-04-22T13:23:32.698Z,4.82
2023-04-22T13:26:18.945Z,4.75
2023-04-22T13:29:11.034Z,5.45
2023-04-22T13:34:42.084Z,3.75
2023-04-22T13:37:27.464Z,4.85
2023-04-22T13:40:13.107Z,3.60
2023-04-22T13:42:58.788Z,3.72
2023-04-22T13:45:44.109Z,4.15
2023-04-22T13:48:30.151Z,5.40
2023-04-22T13:51:16.069Z,4.88
2023-04-22T13:54:01.614Z,4.80
2023-04-22T13:56:46.944Z,4.70
2023-04-22T13:59:32.182Z,4.78
2023-04-22T14:02:18.125Z,5.45
2023-04-22T14:05:04.227Z,5.15
2023-04-22T14:07:49.666Z,6.20
2023-04-22T14:10:35.417Z,5.22
2023-04-22T14:13:21.410Z,5.32
2023-04-22T14:16:12.000Z,6.25
2023-04-22T14:18:58.452Z,6.03
2023-04-22T14:21:43.822Z,6.18
2023-04-22T14:24:29.160Z,6.63
2023-04-22T14:27:14.959Z,6.38
2023-04-22T14:30:02.011Z,4.90
2023-04-22T14:32:47.705Z,5.82
2023-04-22T14:35:34.874Z,5.60
2023-04-22T14:38:21.528Z,6.70
2023-04-22T14:41:07.245Z,6.38
2023-04-22T14:43:52.722Z,6.03
2023-04-22T14:46:38.001Z,6.63
2023-04-22T14:49:23.440Z,5.70
2023-04-22T14:52:09.083Z,5.75
2023-04-22T14:54:54.579Z,6.50
2023-04-22T14:57:40.086Z,5.82
2023-04-22T15:00:26.830Z,7.35
2023-04-22T15:03:12.742Z,6.40
2023-04-22T15:05:58.992Z,5.55
2023-04-22T15:08:44.593Z,6.38
2023-04-22T15:11:30.507Z,5.90
2023-04-22T15:14:17.166Z,6.35
2023-04-22T15:17:05.501Z,6.68
2023-04-22T15:19:53.322Z,6.15
2023-04-22T15:22:42.410Z,6.38
2023-04-22T15:25:28.160Z,6.32
2023-04-22T15:28:14.301Z,6.85
2023-04-22T15:30:59.746Z,6.88
2023-04-22T15:33:45.111Z,7.18
2023-04-22T15:36:31.620Z,8.32
2023-04-22T15:39:17.164Z,7.40
2023-04-22T15:42:02.924Z,7.05
2023-04-22T15:44:48.297Z,12.38
2023-04-22T15:47:34.102Z,9.20
2023-04-22T15:50:23.342Z,9.63
2023-04-22T15:53:09.292Z,7.68
2023-04-22T15:55:54.574Z,7.65
2023-04-22T15:58:40.129Z,7.88
2023-04-22T16:01:25.543Z,8.63
2023-04-22T16:04:11.205Z,8.57
2023-04-22T16:06:57.523Z,8.25
2023-04-22T16:09:43.477Z,10.15
2023-04-22T16:12:29.256Z,8.30
2023-04-22T16:15:16.605Z,7.32
2023-04-22T16:18:03.171Z,7.03
2023-04-22T16:20:49.172Z,7.18
2023-04-22T16:23:34.862Z,7.43
2023-04-22T16:26:20.846Z,6.50
2023-04-22T16:29:06.332Z,6.97
2023-04-22T16:31:52.154Z,6.85
2023-04-22T16:34:38.345Z,6.25
2023-04-22T16:37:25.270Z,7.07
2023-04-22T16:40:10.818Z,7.50
2023-04-22T16:42:57.233Z,6.13
2023-04-22T16:45:42.511Z,6.75
2023-04-22T16:48:27.810Z,6.78
2023-04-22T16:51:13.155Z,7.05
2023-04-22T16:53:58.438Z,7.22
2023-04-22T16:56:43.804Z,7.35
2023-04-22T16:59:29.972Z,7.30
2023-04-22T17:02:15.498Z,6.13
2023-04-22T17:05:02.614Z,6.78
2023-04-22T17:07:47.973Z,6.60
2023-04-22T17:10:34.800Z,6.28
2023-04-22T17:13:20.187Z,11.25
2023-04-22T17:16:05.785Z,8.25
2023-04-22T17:18:51.307Z,9.48
2023-04-22T17:21:37.405Z,8.93
2023-04-22T17:24:24.271Z,9.20
2023-04-22T17:27:14.759Z,9.48
2023-04-22T17:30:00.339Z,8.40
2023-04-22T17:32:45.800Z,8.70
2023-04-22T17:35:31.224Z,7.72
2023-04-22T17:38:16.982Z,8.98
2023-04-22T17:41:02.678Z,8.70
2023-04-22T17:43:47.969Z,10.95
2023-04-22T17:46:33.336Z,14.07
2023-04-22T17:49:18.842Z,11.43
2023-04-22T17:52:04.246Z,11.23
2023-04-22T17:54:50.402Z,16.10
2023-04-22T17:57:36.628Z,12.02
2023-04-22T18:00:22.201Z,9.63
2023-04-22T18:03:07.912Z,9.43
2023-04-22T18:05:53.582Z,8.27
2023-04-22T18:08:38.928Z,9.93
2023-04-22T18:11:24.497Z,8.93
2023-04-22T18:14:10.718Z,7.28
2023-04-22T18:16:56.730Z,7.45
2023-04-22T18:19:44.110Z,7.68
2023-04-22T18:22:29.565Z,6.75
2023-04-22T18:25:15.564Z,5.55
2023-04-22T18:28:01.071Z,4.53
2023-04-22T18:30:46.974Z,4.65
2023-04-22T18:33:32.894Z,6.47
2023-04-22T18:36:18.675Z,6.32
2023-04-22T18:39:05.821Z,6.35
2023-04-22T18:41:52.012Z,7.03
2023-04-22T18:44:37.766Z,9.15
2023-04-22T18:47:23.440Z,9.15
2023-04-22T18:50:09.967Z,10.80
2023-04-22T18:52:55.202Z,12.27
2023-04-22T18:55:40.628Z,13.23
2023-04-22T18:58:27.009Z,11.02
2023-04-22T19:01:12.811Z,8.50
2023-04-22T19:04:01.712Z,8.50
2023-04-22T19:06:48.098Z,8.35
2023-04-22T19:09:33.436Z,9.32
2023-04-22T19:12:19.728Z,13.25
2023-04-22T19:15:06.260Z,14.82
2023-04-22T19:17:51.757Z,15.48
2023-04-22T19:20:37.512Z,14.55
2023-04-22T19:23:23.068Z,15.05
2023-04-22T19:26:11.621Z,16.10
2023-04-22T19:28:57.254Z,16.65
2023-04-22T19:31:46.352Z,15.38
2023-04-22T19:34:32.268Z,17.15
2023-04-22T19:37:18.625Z,17.05
2023-04-22T19:40:04.652Z,15.52
2023-04-22T19:42:50.351Z,14.50
2023-04-22T19:45:35.503Z,14.23
2023-04-22T19:48:21.464Z,13.13
2023-04-22T19:51:07.035Z,13.27
2023-04-22T19:53:54.457Z,14.15
2023-04-22T19:56:41.514Z,13.52
2023-04-22T19:59:31.205Z,12.65
2023-04-22T20:02:16.649Z,14.27
2023-04-22T20:05:05.663Z,12.43
2023-04-22T20:07:51.953Z,12.50
2023-04-22T20:10:38.309Z,13.35
2023-04-22T20:13:23.957Z,13.45
2023-04-22T20:16:10.712Z,13.70
2023-04-22T20:18:56.685Z,14.18
2023-04-22T20:21:43.551Z,13.02
2023-04-22T20:24:32.519Z,13.18
2023-04-22T20:27:18.821Z,12.27
2023-04-22T20:30:05.742Z,11.60
2023-04-22T20:32:51.677Z,12.55
2023-04-22T20:35:38.700Z,14.43
2023-04-22T20:38:25.326Z,15.65
2023-04-22T20:41:13.379Z,15.73
2023-04-22T20:43:58.703Z,14.30
2023-04-22T20:46:44.536Z,14.35
2023-04-22T20:49:29.960Z,13.75
2023-04-22T20:52:15.501Z,13.25
2023-04-22T20:55:01.325Z,13.48
2023-04-22T20:57:46.924Z,14.38
2023-04-22T21:00:32.796Z,13.00
2023-04-22T21:03:19.048Z,12.23
2023-04-22T21:06:05.717Z,10.15
2023-04-22T21:08:51.445Z,9.60
2023-04-22T21:11:37.206Z,9.55
2023-04-22T21:14:26.202Z,8.32
2023-04-22T21:17:25.281Z,9.15
2023-04-22T21:20:11.572Z,8.05
2023-04-22T21:22:58.060Z,5.80
2023-04-22T21:25:44.277Z,6.63
2023-04-22T21:28:30.393Z,5.53
2023-04-22T21:31:16.600Z,6.47
2023-04-22T21:34:04.677Z,6.85
2023-04-22T21:36:50.145Z,5.80
2023-04-22T21:39:36.405Z,5.90
2023-04-22T21:42:22.058Z,6.15
2023-04-22T21:45:08.011Z,5.82
2023-04-22T21:47:54.016Z,5.40
2023-04-22T21:50:39.504Z,5.80
2023-04-22T21:53:25.016Z,5.47
2023-04-22T21:56:11.161Z,5.65
2023-04-22T21:58:56.647Z,5.97
2023-04-22T22:01:42.454Z,6.28
2023-04-22T22:04:28.055Z,6.75
2023-04-22T22:07:14.812Z,6.38
2023-04-22T22:10:00.992Z,6.60
2023-04-22T22:12:47.523Z,7.38
2023-04-22T22:15:32.789Z,7.63
2023-04-22T22:18:18.366Z,8.13
2023-04-22T22:21:04.057Z,8.90
2023-04-22T22:23:49.891Z,9.18
2023-04-22T22:26:36.591Z,9.45
2023-04-22T22:29:21.938Z,8.63
2023-04-22T22:32:07.852Z,8.40
2023-04-22T22:34:53.591Z,10.07
2023-04-22T22:37:38.999Z,10.88
2023-04-22T22:40:24.476Z,8.77
2023-04-22T22:43:09.942Z,10.48
2023-04-22T22:45:55.835Z,9.90
2023-04-22T22:48:41.360Z,10.43
2023-04-22T22:51:29.931Z,9.90
2023-04-22T22:54:15.679Z,10.90
2023-04-22T22:57:01.757Z,9.95
2023-04-22T22:59:47.141Z,11.48
2023-04-22T23:02:32.760Z,10.00
2023-04-22T23:05:18.657Z,10.52
2023-04-22T23:08:04.445Z,9.63
2023-04-22T23:10:50.596Z,10.95
2023-04-22T23:13:36.072Z,10.48
2023-04-22T23:16:21.648Z,9.57
2023-04-22T23:19:07.545Z,8.02
2023-04-22T23:21:54.917Z,8.55
2023-04-22T23:24:40.805Z,9.55
2023-04-22T23:27:26.602Z,8.10
2023-04-22T23:30:12.832Z,8.55
2023-04-22T23:33:02.539Z,9.48
2023-04-22T23:35:47.863Z,8.27
2023-04-22T23:38:33.738Z,9.18
2023-04-22T23:41:19.867Z,8.70
2023-04-22T23:44:05.430Z,8.30
2023-04-22T23:46:51.006Z,8.18
2023-04-22T23:49:36.737Z,8.52
2023-04-22T23:52:22.987Z,9.15
2023-04-22T23:55:13.979Z,8.98
2023-04-22T23:57:59.380Z,10.05
